| time (UTC) | temp F | wind direction | speed MPH | gust MPH | rain 1hr in | rain 24hr in | rain mn in | humidity % | barometer mb |
| 20260505230032 | 73 | 360 | 4.0 | 9.0 | 0.00 | 0.43 | 0.00 | 32 | 1009.4 |
| 20260505224509 | 73 | 360 | 1.0 | 6.0 | 0.00 | 0.43 | 0.00 | 37 | 1009.6 |
| 20260505223006 | 74 | 360 | 2.0 | 9.0 | 0.00 | 0.43 | 0.00 | 36 | 1009.8 |
| 20260505221504 | 70 | 360 | 0.0 | 6.0 | 0.00 | 0.43 | 0.00 | 40 | 1010.1 |
| 20260505220003 | 71 | 360 | 1.0 | 6.0 | 0.00 | 0.43 | 0.00 | 39 | 1010.3 |
| 20260505214505 | 72 | 360 | 1.0 | 7.0 | 0.00 | 0.43 | 0.00 | 40 | 1010.6 |
| 20260505213102 | 73 | 360 | 1.0 | 6.0 | 0.00 | 0.43 | 0.00 | 41 | 1010.8 |
| 20260505211557 | 68 | 360 | 0.0 | 5.0 | 0.00 | 0.43 | 0.00 | 43 | 1011.1 |
| 20260505210055 | 68 | 360 | 0.0 | 5.0 | 0.00 | 0.43 | 0.00 | 44 | 1011.2 |
| 20260505204601 | 67 | 360 | 2.0 | 6.0 | 0.00 | 0.44 | 0.00 | 45 | 1011.3 |
| 20260505203100 | 69 | 360 | 0.0 | 7.0 | 0.00 | 0.44 | 0.00 | 44 | 1011.4 |
| 20260505201551 | 69 | 360 | 0.0 | 6.0 | 0.00 | 0.44 | 0.00 | 46 | 1011.5 |
| 20260505200050 | 68 | 360 | 2.0 | 7.0 | 0.00 | 0.44 | 0.00 | 49 | 1011.7 |
| 20260505194602 | 67 | 360 | 0.0 | 6.0 | 0.00 | 0.44 | 0.00 | 48 | 1011.9 |
| 20260505193045 | 66 | 360 | 1.0 | 6.0 | 0.00 | 0.44 | 0.00 | 52 | 1012.1 |
| 20260505191544 | 65 | 360 | 0.0 | 6.0 | 0.00 | 0.44 | 0.00 | 51 | 1012.2 |
| 20260505190043 | 64 | 360 | 0.0 | 4.0 | 0.00 | 0.44 | 0.00 | 57 | 1012.2 |
| 20260505184541 | 66 | 360 | 0.0 | 0.0 | 0.00 | 0.44 | 0.00 | 55 | 1012.2 |
| 20260505183037 | 60 | 360 | 0.0 | 5.0 | 0.00 | 0.44 | 0.00 | 57 | 1012.3 |
| 20260505181534 | 59 | 360 | 0.0 | 2.0 | 0.00 | 0.44 | 0.00 | 62 | 1012.4 |
| 20260505180032 | 60 | 360 | 0.0 | 4.0 | 0.00 | 0.44 | 0.00 | 68 | 1012.4 |
| 20260505174529 | 55 | 360 | 0.0 | 2.0 | 0.00 | 0.44 | 0.00 | 71 | 1012.3 |
| 20260505173039 | 56 | 360 | 0.0 | 2.0 | 0.00 | 0.44 | 0.00 | 71 | 1012.3 |
| 20260505171523 | 55 | 360 | 0.0 | 1.0 | 0.00 | 0.44 | 0.00 | 75 | 1012.1 |
| 20260505170025 | 53 | 360 | 0.0 | 0.0 | 0.00 | 0.44 | 0.00 | 77 | 1012.1 |
| 20260505164537 | 52 | 360 | 0.0 | 0.0 | 0.00 | 0.44 | 0.00 | 79 | 1012.2 |
| 20260505163015 | 51 | 360 | 0.0 | 0.0 | 0.00 | 0.44 | 0.00 | 80 | 1012.1 |
| 20260505161510 | 50 | 360 | 0.0 | 0.0 | 0.00 | 0.44 | 0.00 | 80 | 1011.9 |
| 20260505153009 | 49 | 360 | 0.0 | 0.0 | 0.00 | 0.44 | 0.00 | 81 | 1011.5 |
| 20260505151501 | 49 | 360 | 0.0 | 0.0 | 0.00 | 0.44 | 0.00 | 83 | 1011.4 |
| 20260505124540 | 46 | 360 | 0.0 | 0.0 | 0.00 | 0.44 | 0.00 | 88 | 1010.0 |
| 20260505123040 | 46 | 360 | 0.0 | 0.0 | 0.00 | 0.44 | 0.00 | 88 | 1009.9 |
| 20260505121542 | 46 | 360 | 0.0 | 0.0 | 0.00 | 0.44 | 0.00 | 88 | 1010.0 |
| 20260505120039 | 46 | 360 | 0.0 | 0.0 | 0.00 | 0.44 | 0.00 | 88 | 1009.9 |
| 20260505114544 | 46 | 360 | 0.0 | 0.0 | 0.00 | 0.44 | 0.00 | 88 | 1009.9 |
| 20260505113038 | 45 | 360 | 0.0 | 0.0 | 0.00 | 0.44 | 0.00 | 88 | 1010.0 |
| 20260505111549 | 45 | 360 | 0.0 | 0.0 | 0.00 | 0.44 | 0.00 | 89 | 1009.8 |
| 20260505101535 | 45 | 360 | 0.0 | 0.0 | 0.00 | 0.44 | 0.00 | 89 | 1010.0 |
| 20260505100042 | 45 | 360 | 0.0 | 0.0 | 0.00 | 0.44 | 0.00 | 90 | 1009.9 |
| 20260505094532 | 45 | 360 | 0.0 | 0.0 | 0.00 | 0.44 | 0.00 | 91 | 1009.9 |
| 20260505093033 | 45 | 360 | 0.0 | 0.0 | 0.00 | 0.44 | 0.00 | 91 | 1010.1 |
| 20260505091540 | 45 | 360 | 0.0 | 0.0 | 0.00 | 0.44 | 0.00 | 91 | 1010.1 |
| 20260505090047 | 45 | 360 | 0.0 | 0.0 | 0.00 | 0.44 | 0.00 | 91 | 1010.1 |
| 20260505084534 | 46 | 360 | 0.0 | 0.0 | 0.00 | 0.44 | 0.00 | 91 | 1010.3 |
| 20260505083035 | 46 | 360 | 0.0 | 0.0 | 0.00 | 0.44 | 0.00 | 91 | 1010.4 |
| 20260505081533 | 46 | 360 | 0.0 | 0.0 | 0.00 | 0.44 | 0.00 | 91 | 1010.5 |
| 20260505080035 | 45 | 360 | 0.0 | 0.0 | 0.00 | 0.44 | 0.00 | 91 | 1010.5 |
| 20260505074522 | 46 | 360 | 0.0 | 0.0 | 0.01 | 0.44 | 0.00 | 90 | 1010.3 |
| 20260505073020 | 46 | 360 | 0.0 | 1.0 | 0.02 | 0.44 | 0.00 | 90 | 1010.6 |
| 20260505071525 | 46 | 360 | 0.0 | 1.0 | 0.02 | 0.44 | 0.00 | 90 | 1010.8 |
| 20260505070020 | 46 | 360 | 0.0 | 1.0 | 0.02 | 0.44 | 0.00 | 90 | 1010.6 |
| 20260505064515 | 46 | 360 | 0.0 | 0.0 | 0.01 | 0.43 | 0.43 | 90 | 1010.0 |
| 20260505063016 | 46 | 360 | 0.0 | 0.0 | 0.00 | 0.42 | 0.42 | 89 | 1009.9 |
| 20260505061525 | 46 | 360 | 0.0 | 0.0 | 0.01 | 0.42 | 0.42 | 89 | 1010.0 |
| 20260505060017 | 45 | 360 | 0.0 | 0.0 | 0.01 | 0.42 | 0.42 | 87 | 1009.8 |
| 20260505054521 | 46 | 360 | 0.0 | 1.0 | 0.01 | 0.42 | 0.42 | 87 | 1009.9 |
| 20260505053013 | 46 | 360 | 0.0 | 5.0 | 0.01 | 0.42 | 0.42 | 86 | 1010.1 |
| 20260505051512 | 46 | 360 | 0.0 | 8.0 | 0.00 | 0.41 | 0.41 | 85 | 1010.4 |
| 20260505041508 | 46 | 360 | 0.0 | 5.0 | 0.02 | 0.41 | 0.41 | 89 | 1009.9 |
| 20260505040007 | 46 | 360 | 0.0 | 1.0 | 0.04 | 0.40 | 0.40 | 89 | 1009.6 |
| 20260505034506 | 46 | 360 | 0.0 | 0.0 | 0.06 | 0.40 | 0.40 | 89 | 1009.4 |
| 20260505033008 | 46 | 360 | 0.0 | 4.0 | 0.06 | 0.40 | 0.40 | 88 | 1009.1 |
| 20260505031505 | 46 | 360 | 0.0 | 5.0 | 0.05 | 0.39 | 0.39 | 86 | 1009.4 |
| 20260505030004 | 46 | 360 | 1.0 | 8.0 | 0.01 | 0.35 | 0.35 | 84 | 1009.5 |
| 20260505024508 | 47 | 360 | 5.0 | 12.0 | 0.00 | 0.34 | 0.34 | 85 | 1009.8 |
| 20260505023001 | 48 | 360 | 2.0 | 6.0 | 0.02 | 0.34 | 0.34 | 87 | 1009.1 |
| 20260505021504 | 48 | 360 | 0.0 | 2.0 | 0.08 | 0.34 | 0.34 | 87 | 1008.8 |
| 20260505020200 | 47 | 360 | 1.0 | 7.0 | 0.12 | 0.34 | 0.34 | 88 | 1008.5 |
| 20260505014559 | 47 | 360 | 1.0 | 12.0 | 0.19 | 0.34 | 0.34 | 88 | 1008.1 |
| 20260505013057 | 48 | 360 | 1.0 | 4.0 | 0.28 | 0.32 | 0.32 | 87 | 1009.0 |
| 20260505011557 | 48 | 360 | 1.0 | 8.0 | 0.24 | 0.26 | 0.26 | 86 | 1009.7 |
| 20260505010053 | 49 | 360 | 1.0 | 6.0 | 0.21 | 0.22 | 0.22 | 84 | 1009.0 |
| 20260505004551 | 50 | 360 | 5.0 | 9.0 | 0.13 | 0.14 | 0.14 | 81 | 1009.0 |
| 20260505003049 | 51 | 360 | 5.0 | 11.0 | 0.02 | 0.03 | 0.03 | 75 | 1008.6 |
| 20260505001548 | 53 | 360 | 4.0 | 10.0 | 0.01 | 0.02 | 0.02 | 73 | 1007.9 |
| 20260505000047 | 54 | 360 | 6.0 | 10.0 | 0.00 | 0.01 | 0.01 | 65 | 1007.5 |
| 20260504234547 | 55 | 360 | 6.0 | 10.0 | 0.00 | 0.01 | 0.01 | 64 | 1007.2 |
| 20260504233057 | 56 | 360 | 8.0 | 13.0 | 0.00 | 0.01 | 0.01 | 62 | 1007.1 |
| 20260504231545 | 58 | 360 | 7.0 | 14.0 | 0.00 | 0.01 | 0.01 | 56 | 1007.3 |